Terminal Aerodrome Forecast
Issued by NWS

Home | Current Version | Previous Version | Text Only | Print | Product List | Glossary On
Versions: 1 2 3 4 5 6 7 8 9 10 11 12 13 14 15 16 17 18 19 20 21 22 23 24 25 26 27 28 29 30 31 32 33 34 35 36 37 38 39 40
930
FTUS43 KEAX 182320
TAFSTJ
TAF
KSTJ 182320Z 1900/1924 21007KT P6SM SCT050
     FM190800 VRB05KT P6SM SCT035
     FM190900 VRB04KT 3SM BR BKN010
      TEMPO 1910/1913 1/4SM FG VV001
     FM191300 09005KT P6SM BKN015
     FM192000 15008KT P6SM SCT030=

USA.gov is the U.S. government's official web portal to all federal, state and local government web resources and services.